ESOW

Details ICAO ESOW (VST)
Name Vasteras
Region Sweden
Timezone Europe/Stockholm (UTC+2.0)
Plans Departing 61
Arriving 33
Stats Elevation 21 ft / 6 m (AMSL)
Location 59.589829° 16.633862°
Runways 1
Magnetic Variation 5.651° E
Sunrise 2018-05-24 02:01:36 UTC / 2018-05-24 04:01:36 Local
Sunset 2018-05-24 19:41:52 UTC / 2018-05-24 21:41:52 Local
Advertisement - Login to hide

Runways

ID Width Length Bearing (true) Bearing (mag) Surface Threshold Offset Overrun Length
01 151 ft / 46 m 8,454 ft / 2,577 m 11.62° 5.97° Asphalt 1,309 ft / 399 m 0 ft / 0 m
19 151 ft / 46 m 8,454 ft / 2,577 m 191.63° 185.98° Asphalt 0 ft / 0 m 0 ft / 0 m

Approach Navaids

Runway Type Ident Frequency Range Bearing (true) Bearing (mag) Slope Elevation
19 Localiser SCD 108.30 MHz 18 nm / 33 km 191.65° 186.00° - 21 ft / 6 m (AMSL)
19 Glidescope SCD 108.30 MHz 10 nm / 19 km 191.63° 185.98° 3.25° 21 ft / 6 m (AMSL)
19 DME SCD 108.30 MHz 18 nm / 33 km - - - 38 ft / 12 m (AMSL)

Map

Weather


0- 5 10 15 20 25 30 35+ Temperature / ° C

Clouds and Precipitation
Forecast for 2018-05-24 18:00 UTC. Updated 3 hours ago

Ground ~20,000 ft ~40,000 ft Winds

METAR

ESOW 242020Z AUTO 16008KT 9999 NCD 16/03 Q1028

TAF

Not found

Frequencies

Tower 130.60 MHz TWR
Approach 125.95 MHz CON
Warning: Do not use this data for real-world aviation or navigation. No guarantee of current accuracy is given.